Hauptseite
METAR-TAF:

METAR-TAF

Flughäfen :

Flughafen Oujda-Angads

Oujda, Marokko

Breite: 34-47N, Länge: 001-56W, Höhe: 468 m

Beobachtung

Neuester Wetterbericht von vor 15 Minuten, um 13:30 UTC
Wind 14 kt aus Nordwest
Temperatur 25°C
Luftfeuchtigkeit 61%
Luftdruck 1019 hPa
Sichtweite 10 km oder mehr
Leicht bewölkt in der Höhe von 2300 ft

METAR: GMFO 271330Z 32014KT 9999 FEW023 25/17 Q1019 NOSIG

Zeit: 14:45 (13:45 UTC)

Prognose

Neuester Wetterbericht von vor 2 Stunden und 45 Minuten, um 11:00 UTC
Gültige Prognose vom 27 um 12 UTC bis 28 um 18 UTC
Wind 10 kt aus Nord/Nordwest
Sichtweite 10 km oder mehr
keine Wolken unter 1500 m und keine Kumulonimbus oder Gewitterwolken
Wahrscheinlichkeit 30% :
Zeitweise
vom 28 um 02 UTC bis 28 um 08 UTC
Sichtweite: 2000 m
Durchbrochene Bewölkung in der Höhe von 300 ft
feuchter Dunst

TAF: GMFO 271100Z 2712/2818 33010KT CAVOK PROB30 TEMPO 2802/2808 2000 BR BKN003

Wetterbeobachtungen und Prognosen von mehr als 4000 Flughäfen (METAR und TAF Bericht).

Die verfügbaren Stationen werden durch gelbe und rote Markierungen auf der Karte dargestellt.

Führen Sie die Maus auf sie, um den Namen der Station zu sehen.

Darauf klicken, um die Beobachtung von Wetterbeobachtungen und Prognosen zu sehen.

Um die Karte zu ändern : klicken Sie auf den grünen Tasten mit einem schwarzen Kreuz Zum Vergrößern, auf den grünen Button mit einem Gedankenstrich zu verkleinern, oder auf die grünen Pfeile für benachbarte Karten.


METAR-TAF: